Time;durP1;ratioP1;P1;durP2;ratioP2;P2;SDS_P1;SDS_P2;PMS_P1;PMS_P2;Temp;Humidity;BMP_temperature;BMP_pressure;BME280_temperature;BME280_humidity;BME280_pressure;Samples;Min_cycle;Max_cycle;Signal;HPM_P1;HPM_P2
2021/04/19 00:01:18;;;;;;;8.55;5.10;;;;;;;13.48;33.12;101556.31;3615102;39;20042;-70
2021/04/19 00:03:47;;;;;;;7.50;5.30;;;;;;;13.49;33.21;101557.19;3612977;39;20091;-70
2021/04/19 00:06:15;;;;;;;8.30;5.38;;;;;;;13.47;33.23;101559.19;3615268;39;20036;-70
2021/04/19 00:08:42;;;;;;;8.10;5.10;;;;;;;13.47;33.00;101557.31;3617297;39;20063;-70
2021/04/19 00:11:09;;;;;;;8.40;5.20;;;;;;;13.45;32.98;101552.94;3615893;39;20053;-70
2021/04/19 00:13:36;;;;;;;8.40;5.40;;;;;;;13.45;33.09;101550.19;3618387;39;20047;-70
2021/04/19 00:16:04;;;;;;;9.80;5.88;;;;;;;13.43;33.19;101550.34;3614173;39;20048;-70
2021/04/19 00:18:31;;;;;;;8.57;5.10;;;;;;;13.42;33.38;101553.22;3610163;39;20039;-70
2021/04/19 00:20:59;;;;;;;7.47;4.70;;;;;;;13.41;33.56;101548.75;3600879;39;20051;-70
2021/04/19 00:23:27;;;;;;;8.70;5.10;;;;;;;13.39;33.34;101554.38;3615981;39;20058;-70
2021/04/19 00:25:54;;;;;;;7.32;4.95;;;;;;;13.40;33.24;101552.50;3613776;39;20310;-70
2021/04/19 00:28:21;;;;;;;8.07;4.82;;;;;;;13.39;33.24;101553.50;3609757;39;20058;-69
2021/04/19 00:30:49;;;;;;;7.75;4.63;;;;;;;13.38;33.32;101557.25;3607258;39;20051;-70
2021/04/19 00:33:16;;;;;;;6.55;4.55;;;;;;;13.36;33.60;101554.63;3615385;39;20043;-70
2021/04/19 00:35:43;;;;;;;6.32;4.85;;;;;;;13.36;33.43;101556.50;3613249;39;20059;-69
2021/04/19 00:38:12;;;;;;;7.00;4.45;;;;;;;13.37;33.56;101555.50;3615386;39;20066;-70
2021/04/19 00:40:41;;;;;;;7.03;4.70;;;;;;;13.36;33.55;101551.00;3616005;39;20047;-70
2021/04/19 00:43:09;;;;;;;7.22;4.88;;;;;;;13.34;33.50;101544.75;3614614;39;20071;-70
2021/04/19 00:45:37;;;;;;;6.75;4.55;;;;;;;13.34;33.85;101547.50;3611818;39;20806;-72
2021/04/19 00:48:05;;;;;;;7.32;4.22;;;;;;;13.33;33.95;101552.16;3598644;39;20035;-70
2021/04/19 00:50:34;;;;;;;7.00;4.68;;;;;;;13.32;33.53;101539.44;3597718;39;20316;-70
2021/04/19 00:53:03;;;;;;;6.20;3.95;;;;;;;13.32;33.44;101541.31;3598580;39;20058;-69
2021/04/19 00:55:31;;;;;;;7.05;4.60;;;;;;;13.32;33.94;101542.19;3615952;39;20108;-67
2021/04/19 00:57:59;;;;;;;6.55;4.80;;;;;;;13.31;33.57;101545.06;3615766;39;20505;-68
2021/04/19 01:00:30;;;;;;;7.57;5.22;;;;;;;13.30;34.16;101533.19;3608101;39;20055;-68
2021/04/19 01:02:59;;;;;;;6.13;4.38;;;;;;;13.29;33.99;101533.31;3605420;39;20402;-68
2021/04/19 01:05:30;;;;;;;6.22;4.65;;;;;;;13.29;34.00;101530.56;3618791;39;20054;-68
2021/04/19 01:07:59;;;;;;;6.90;4.75;;;;;;;13.28;34.25;101529.69;3604552;39;20095;-68
2021/04/19 01:10:27;;;;;;;7.20;4.95;;;;;;;13.27;33.78;101527.94;3614625;39;20039;-68
2021/04/19 01:12:56;;;;;;;8.40;4.80;;;;;;;13.27;34.16;101527.06;3605413;39;20137;-68
2021/04/19 01:15:23;;;;;;;6.97;4.70;;;;;;;13.25;34.07;101527.22;3617299;39;20448;-68
2021/04/19 01:17:52;;;;;;;7.10;4.90;;;;;;;13.24;33.86;101528.22;3604694;39;20060;-68
2021/04/19 01:20:24;;;;;;;6.82;4.72;;;;;;;13.24;33.82;101525.50;3602465;39;20043;-68
2021/04/19 01:22:52;;;;;;;6.30;4.03;;;;;;;13.25;34.37;101531.84;3616391;39;20031;-68
2021/04/19 01:25:24;;;;;;;6.82;4.80;;;;;;;13.23;34.37;101529.22;3610272;39;20403;-68
2021/04/19 01:27:52;;;;;;;7.28;4.80;;;;;;;13.21;34.13;101528.50;3608452;39;20071;-69
2021/04/19 01:30:22;;;;;;;6.72;4.78;;;;;;;13.22;34.09;101529.38;3600843;39;20334;-68
2021/04/19 01:32:50;;;;;;;7.82;4.80;;;;;;;13.19;34.23;101525.00;3615916;39;20401;-68
2021/04/19 01:35:18;;;;;;;6.82;4.60;;;;;;;13.18;34.23;101523.25;3599001;39;20078;-68
2021/04/19 01:37:46;;;;;;;6.93;4.72;;;;;;;13.17;34.46;101529.78;3606301;39;20483;-68
2021/04/19 01:40:17;;;;;;;6.05;4.22;;;;;;;13.17;34.58;101536.13;3604619;39;20405;-68
2021/04/19 01:42:44;;;;;;;7.55;4.30;;;;;;;13.15;34.78;101529.91;3609398;39;20302;-68
2021/04/19 01:45:13;;;;;;;7.20;4.63;;;;;;;13.15;34.75;101532.66;3610067;39;20043;-68
2021/04/19 01:47:42;;;;;;;7.70;4.97;;;;;;;13.14;34.66;101532.78;3614742;39;20040;-68
2021/04/19 01:50:11;;;;;;;7.47;4.88;;;;;;;13.14;34.77;101530.03;3605042;39;20151;-68
2021/04/19 01:52:39;;;;;;;6.45;4.57;;;;;;;13.12;34.87;101532.91;3605559;39;20045;-68
2021/04/19 01:55:09;;;;;;;7.03;5.20;;;;;;;13.13;34.80;101529.16;3616407;39;20042;-68
2021/04/19 01:57:42;;;;;;;8.57;4.75;;;;;;;13.11;35.21;101525.66;3602936;39;20038;-68
2021/04/19 02:00:11;;;;;;;7.45;4.30;;;;;;;13.10;34.59;101525.78;3607515;39;20051;-68
2021/04/19 02:02:50;;;;;;;7.03;4.07;;;;;;;13.11;34.90;101527.53;3607912;39;20043;-68
2021/04/19 02:05:31;;;;;;;6.63;4.45;;;;;;;13.08;34.99;101520.47;3608006;39;20050;-68
2021/04/19 02:08:08;;;;;;;8.68;4.30;;;;;;;13.07;35.01;101524.19;3617474;39;20347;-68
2021/04/19 02:10:45;;;;;;;7.72;4.22;;;;;;;13.05;34.65;101522.59;3610197;39;20489;-68
2021/04/19 02:13:17;;;;;;;6.82;4.15;;;;;;;13.02;34.59;101525.59;3604116;39;20054;-68
2021/04/19 02:15:51;;;;;;;6.50;4.32;;;;;;;13.01;34.95;101523.84;3603111;39;20094;-68
2021/04/19 02:18:30;;;;;;;6.65;3.85;;;;;;;13.00;34.82;101516.63;3618613;39;20413;-68
2021/04/19 02:21:02;;;;;;;8.32;5.00;;;;;;;12.96;34.37;101513.25;3603965;39;20043;-68
2021/04/19 02:23:34;;;;;;;6.47;4.80;;;;;;;12.93;34.89;101521.75;3606362;39;20056;-68
2021/04/19 02:26:08;;;;;;;6.60;4.57;;;;;;;12.93;34.75;101521.75;3604882;39;20051;-68
2021/04/19 02:28:45;;;;;;;7.28;4.28;;;;;;;12.91;34.52;101515.50;3606154;39;20027;-70
2021/04/19 02:31:18;;;;;;;8.05;4.95;;;;;;;12.88;34.59;101523.13;3611922;39;20043;-68
2021/04/19 02:33:50;;;;;;;6.68;4.53;;;;;;;12.88;34.58;101518.50;3607713;39;20058;-68
2021/04/19 02:36:18;;;;;;;8.85;4.57;;;;;;;12.87;34.34;101524.13;3598627;39;20410;-68
2021/04/19 02:38:54;;;;;;;7.32;4.60;;;;;;;12.85;34.87;101520.63;3605605;39;20059;-68
2021/04/19 02:41:25;;;;;;;6.78;4.28;;;;;;;12.82;34.80;101524.53;3602593;39;20391;-68
2021/04/19 02:43:54;;;;;;;6.70;4.47;;;;;;;12.83;34.75;101522.66;3601201;39;20421;-68
2021/04/19 02:46:37;;;;;;;6.28;3.92;;;;;;;12.78;34.80;101520.28;3607486;39;20051;-68
2021/04/19 02:49:06;;;;;;;8.32;4.32;;;;;;;12.78;34.67;101523.03;3613558;39;20055;-69
2021/04/19 02:51:34;;;;;;;7.57;4.47;;;;;;;12.76;34.61;101517.66;3616860;39;20418;-68
2021/04/19 02:54:02;;;;;;;7.40;4.53;;;;;;;12.76;34.80;101525.03;3615685;39;20051;-68
2021/04/19 02:56:34;;;;;;;8.05;4.18;;;;;;;12.75;34.79;101520.56;3604895;39;20136;-68
2021/04/19 02:59:07;;;;;;;6.70;4.32;;;;;;;12.75;35.15;101523.31;3602895;39;20150;-70
2021/04/19 03:01:40;;;;;;;6.18;3.97;;;;;;;12.73;34.74;101525.31;3617492;39;20318;-68
2021/04/19 03:04:13;;;;;;;5.45;3.83;;;;;;;12.71;34.85;101530.94;3609068;39;20051;-68
2021/04/19 03:06:48;;;;;;;6.30;3.90;;;;;;;12.70;35.18;101537.41;3597286;39;20059;-68
2021/04/19 03:09:21;;;;;;;5.60;3.63;;;;;;;12.67;35.03;101528.59;3612594;39;20050;-66
2021/04/19 03:11:53;;;;;;;8.25;4.45;;;;;;;12.64;35.73;101526.97;3577300;40;20036;-67
2021/04/19 03:14:25;;;;;;;8.55;4.28;;;;;;;12.61;35.94;101537.31;3587218;40;20040;-68
2021/04/19 03:17:02;;;;;;;7.00;4.03;;;;;;;12.58;36.29;101532.09;3606804;39;20127;-68
2021/04/19 03:20:13;;;;;;;6.97;4.25;;;;;;;12.51;36.14;101531.75;3601406;39;20043;-67
2021/04/19 03:22:51;;;;;;;7.85;4.35;;;;;;;12.46;36.25;101541.34;3605390;39;20078;-67
2021/04/19 03:25:24;;;;;;;7.82;4.40;;;;;;;12.46;36.82;101541.34;3605027;39;20043;-67
2021/04/19 03:27:55;;;;;;;7.85;4.50;;;;;;;12.44;36.79;101538.72;3611240;39;20070;-66
2021/04/19 03:30:25;;;;;;;7.77;4.70;;;;;;;12.40;37.19;101540.00;3601946;39;20387;-67
2021/04/19 03:33:01;;;;;;;7.90;4.53;;;;;;;12.38;36.72;101537.38;3599431;39;20095;-67
2021/04/19 03:35:36;;;;;;;6.88;3.92;;;;;;;12.37;37.46;101535.63;3599080;39;20081;-67
2021/04/19 03:38:10;;;;;;;6.57;4.10;;;;;;;12.34;37.21;101537.78;3595745;39;20055;-67
2021/04/19 03:40:41;;;;;;;5.80;3.60;;;;;;;12.32;37.33;101531.53;3601866;39;20043;-67
2021/04/19 03:43:17;;;;;;;6.95;4.28;;;;;;;12.31;37.84;101530.66;3601317;39;20045;-66
2021/04/19 03:45:59;;;;;;;5.45;3.65;;;;;;;12.28;37.86;101530.03;3596508;39;20424;-66
2021/04/19 03:48:42;;;;;;;8.35;4.57;;;;;;;12.25;37.78;101524.81;3603027;39;20059;-66
2021/04/19 03:51:23;;;;;;;6.28;3.97;;;;;;;12.22;37.33;101530.56;3595846;39;20047;-66
2021/04/19 03:54:00;;;;;;;7.22;4.53;;;;;;;12.21;37.92;101526.06;3601683;39;20402;-67
2021/04/19 03:56:40;;;;;;;5.28;3.60;;;;;;;12.19;37.93;101528.91;3605005;39;20110;-67
2021/04/19 03:59:18;;;;;;;7.97;4.40;;;;;;;12.16;38.53;101523.72;3584899;39;20334;-66
2021/04/19 04:01:54;;;;;;;5.95;4.10;;;;;;;12.14;38.42;101517.47;3597955;39;20457;-68
2021/04/19 04:04:24;;;;;;;6.07;4.20;;;;;;;12.12;38.16;101513.09;3606966;39;20055;-67
2021/04/19 04:07:03;;;;;;;7.65;4.63;;;;;;;12.10;38.25;101518.69;3600011;39;20133;-67
2021/04/19 04:09:49;;;;;;;6.38;3.88;;;;;;;12.08;38.36;101519.84;3594600;39;20071;-67
2021/04/19 04:12:18;;;;;;;7.07;4.80;;;;;;;12.07;38.43;101526.34;3597719;39;20039;-67
2021/04/19 04:14:49;;;;;;;6.63;4.38;;;;;;;12.06;38.35;101522.72;3599701;39;20100;-67
2021/04/19 04:17:26;;;;;;;7.40;4.22;;;;;;;12.04;38.58;101520.09;3602763;39;20035;-68
2021/04/19 04:20:21;;;;;;;7.35;4.25;;;;;;;12.00;38.46;101518.63;3604582;39;20120;-68
2021/04/19 04:23:11;;;;;;;6.65;4.28;;;;;;;11.99;38.69;101525.09;3594587;39;20052;-68
2021/04/19 04:25:51;;;;;;;7.15;4.97;;;;;;;12.00;38.58;101531.47;3596719;39;20104;-67
2021/04/19 04:28:23;;;;;;;;;;;;;;;11.72;39.67;101531.91;3602937;39;20052;-67
2021/04/19 04:31:00;;;;;;;5.47;3.92;;;;;;;11.93;38.69;101532.97;3603872;39;19948;-67
2021/04/19 04:33:34;;;;;;;7.18;4.70;;;;;;;11.95;38.74;101526.31;3607268;39;20043;-67
2021/04/19 04:36:09;;;;;;;7.40;4.80;;;;;;;11.95;39.16;101531.81;3595542;39;20047;-67
2021/04/19 04:38:40;;;;;;;6.10;4.80;;;;;;;11.94;39.11;101540.16;3607258;39;20063;-67
2021/04/19 04:41:14;;;;;;;7.72;4.57;;;;;;;11.93;39.19;101542.06;3604952;39;20079;-67
2021/04/19 04:43:43;;;;;;;8.50;5.05;;;;;;;11.94;39.62;101545.63;3604379;39;20050;-67
2021/04/19 04:46:18;;;;;;;8.52;5.28;;;;;;;11.93;40.21;101550.28;3604005;39;20147;-66
2021/04/19 04:48:55;;;;;;;8.10;4.93;;;;;;;11.93;40.07;101541.19;3590793;40;20067;-67
2021/04/19 04:51:26;;;;;;;8.02;4.93;;;;;;;11.90;39.51;101544.13;3608580;39;20054;-67
2021/04/19 04:53:55;;;;;;;9.20;4.85;;;;;;;11.90;39.44;101544.13;3606653;39;20417;-67
2021/04/19 04:56:25;;;;;;;6.45;4.32;;;;;;;11.90;39.89;101545.00;3613822;39;20144;-67
2021/04/19 04:58:55;;;;;;;8.18;4.88;;;;;;;11.89;39.73;101547.84;3616839;39;20613;-67
2021/04/19 05:01:25;;;;;;;6.82;5.15;;;;;;;11.89;39.77;101553.34;3613225;39;20054;-67
2021/04/19 05:03:54;;;;;;;7.68;5.35;;;;;;;11.88;39.71;101546.97;3614204;39;20127;-66
2021/04/19 05:06:23;;;;;;;8.50;5.75;;;;;;;11.89;40.03;101550.59;3603609;39;20319;-67
2021/04/19 05:08:50;;;;;;;8.15;5.68;;;;;;;11.88;40.19;101543.38;3613388;39;20051;-67
2021/04/19 05:11:18;;;;;;;8.45;5.70;;;;;;;11.85;40.21;101544.50;3614160;39;20051;-67
2021/04/19 05:13:45;;;;;;;7.38;5.10;;;;;;;11.86;39.85;101548.09;3611425;39;20615;-67
2021/04/19 05:16:12;;;;;;;7.60;5.28;;;;;;;11.84;40.09;101545.50;3605893;39;20075;-67
2021/04/19 05:18:39;;;;;;;8.77;5.50;;;;;;;11.84;39.98;101542.75;3615706;39;20058;-67
2021/04/19 05:21:08;;;;;;;7.72;5.63;;;;;;;11.86;40.27;101546.22;3618138;39;20047;-67
2021/04/19 05:23:36;;;;;;;9.45;5.95;;;;;;;11.82;40.19;101552.97;3618215;39;20411;-67
2021/04/19 05:26:03;;;;;;;9.93;6.60;;;;;;;11.81;40.18;101558.56;3601070;39;20112;-69
2021/04/19 05:28:31;;;;;;;8.43;5.88;;;;;;;11.79;40.26;101563.31;3618845;39;20058;-69
2021/04/19 05:30:59;;;;;;;7.43;5.35;;;;;;;11.76;40.34;101564.44;3593915;39;20105;-68
2021/04/19 05:33:26;;;;;;;7.80;5.75;;;;;;;11.75;40.88;101564.56;3604875;39;20055;-68
2021/04/19 05:35:53;;;;;;;8.00;5.80;;;;;;;11.73;40.46;101564.69;3617287;39;20052;-67
2021/04/19 05:38:24;;;;;;;8.10;5.63;;;;;;;11.74;41.04;101569.16;3609311;39;20421;-69
2021/04/19 05:40:54;;;;;;;7.32;4.93;;;;;;;11.69;40.57;101565.06;3616824;39;20408;-69
2021/04/19 05:43:21;;;;;;;8.57;6.15;;;;;;;11.70;40.82;101567.66;3618050;39;20046;-69
2021/04/19 05:45:51;;;;;;;8.32;5.63;;;;;;;11.71;40.61;101565.78;3610184;39;20071;-70
2021/04/19 05:48:18;;;;;;;9.45;5.93;;;;;;;11.69;40.83;101568.63;3619968;39;20051;-69
2021/04/19 05:50:48;;;;;;;9.93;6.32;;;;;;;11.69;41.15;101565.91;3616659;39;20386;-70
2021/04/19 05:53:15;;;;;;;9.32;6.53;;;;;;;11.66;41.15;101567.03;3613719;39;20049;-67
2021/04/19 05:55:44;;;;;;;8.57;5.75;;;;;;;11.68;41.16;101574.28;3612231;39;20059;-69
2021/04/19 05:58:17;;;;;;;8.85;5.95;;;;;;;11.67;41.90;101573.41;3619295;39;20401;-74
2021/04/19 06:00:50;;;;;;;9.38;5.72;;;;;;;11.66;42.02;101578.00;3620579;39;20092;-73
2021/04/19 06:03:26;;;;;;;7.53;5.25;;;;;;;11.65;42.08;101583.59;3619741;39;20031;-73
2021/04/19 06:06:00;;;;;;;9.25;5.93;;;;;;;11.63;41.54;101583.72;3605540;39;20109;-73
2021/04/19 06:08:32;;;;;;;8.63;5.95;;;;;;;11.62;41.64;101590.19;3592100;40;20413;-73
2021/04/19 06:11:18;;;;;;;8.27;5.57;;;;;;;11.63;42.09;101583.72;3592407;40;20045;-73
2021/04/19 06:13:56;;;;;;;8.70;5.55;;;;;;;11.62;41.43;101586.56;3583615;40;20033;-74
2021/04/19 06:16:25;;;;;;;8.85;5.75;;;;;;;11.61;41.71;101585.69;3587815;40;20061;-74
2021/04/19 06:18:54;;;;;;;7.38;5.20;;;;;;;11.61;41.64;101584.81;3585987;40;20089;-73
2021/04/19 06:21:23;;;;;;;9.95;6.40;;;;;;;11.62;41.57;101586.56;3593553;40;20034;-74
2021/04/19 06:23:50;;;;;;;8.95;5.35;;;;;;;11.60;41.51;101583.97;3602099;40;20032;-74
2021/04/19 06:26:18;;;;;;;9.25;5.47;;;;;;;11.61;41.97;101582.06;3565224;40;20037;-73
2021/04/19 06:28:49;;;;;;;8.23;5.40;;;;;;;11.61;42.16;101580.22;3573717;40;20402;-73
2021/04/19 06:31:22;;;;;;;8.77;5.68;;;;;;;11.60;41.84;101589.47;3555592;40;20049;-74
2021/04/19 06:34:02;;;;;;;8.75;5.32;;;;;;;11.61;42.53;101582.06;3563855;40;20049;-74
2021/04/19 06:36:31;;;;;;;8.10;5.32;;;;;;;11.58;41.99;101577.75;3596487;40;20395;-73
2021/04/19 06:38:58;;;;;;;9.63;5.40;;;;;;;11.57;42.04;101575.13;3596467;40;20048;-73
2021/04/19 06:41:27;;;;;;;7.90;5.10;;;;;;;11.58;42.10;101572.25;3596724;39;20039;-73
2021/04/19 06:43:57;;;;;;;9.70;5.18;;;;;;;11.59;42.27;101570.38;3599455;39;20036;-73
2021/04/19 06:46:26;;;;;;;8.88;5.07;;;;;;;11.58;42.22;101574.13;3604733;39;20055;-74
2021/04/19 06:48:54;;;;;;;9.45;5.07;;;;;;;11.56;42.34;101574.25;3613172;39;20080;-74
2021/04/19 06:51:22;;;;;;;8.75;5.07;;;;;;;11.55;42.01;101579.84;3619348;39;20035;-74
2021/04/19 06:53:52;;;;;;;8.82;5.40;;;;;;;11.56;42.47;101585.19;3603196;39;20031;-74
2021/04/19 06:56:22;;;;;;;8.88;5.53;;;;;;;11.54;42.54;101587.19;3624456;39;20079;-77
2021/04/19 06:58:52;;;;;;;9.40;5.32;;;;;;;11.53;42.50;101584.56;3609683;39;20142;-69
2021/04/19 07:01:20;;;;;;;11.75;6.50;;;;;;;11.50;42.33;101588.44;3613869;39;20055;-69
2021/04/19 07:03:52;;;;;;;9.93;5.95;;;;;;;11.50;42.41;101590.28;3618297;39;20043;-70
2021/04/19 07:06:21;;;;;;;9.95;5.95;;;;;;;11.47;42.28;101587.78;3613525;39;20047;-69
2021/04/19 07:09:03;;;;;;;10.30;6.38;;;;;;;11.47;43.02;101594.13;3612353;39;20050;-69
2021/04/19 07:11:35;;;;;;;10.55;6.60;;;;;;;11.46;43.04;101588.78;3607813;39;20043;-70
2021/04/19 07:14:06;;;;;;;9.98;6.70;;;;;;;11.43;42.68;101581.69;3611508;39;20482;-70
2021/04/19 07:16:34;;;;;;;11.90;7.05;;;;;;;11.44;42.28;101588.06;3617476;39;20322;-70
2021/04/19 07:19:01;;;;;;;11.70;7.05;;;;;;;11.42;42.35;101585.41;3612930;39;20127;-70
2021/04/19 07:21:30;;;;;;;8.70;6.07;;;;;;;11.41;42.31;101580.06;3617351;39;20124;-70
2021/04/19 07:23:57;;;;;;;9.85;5.82;;;;;;;11.39;42.22;101585.66;3615760;39;20050;-71
2021/04/19 07:26:24;;;;;;;10.05;6.00;;;;;;;11.38;42.60;101583.03;3617014;39;20055;-71
2021/04/19 07:28:52;;;;;;;9.55;5.45;;;;;;;11.36;42.31;101585.03;3608943;39;20061;-71
2021/04/19 07:31:20;;;;;;;8.68;5.57;;;;;;;11.35;42.54;101578.69;3615365;39;20035;-71
2021/04/19 07:33:52;;;;;;;9.52;5.13;;;;;;;11.32;42.44;101581.66;3610597;39;20537;-72
2021/04/19 07:36:25;;;;;;;8.18;4.93;;;;;;;11.33;43.23;101580.66;3619542;39;20047;-71
2021/04/19 07:38:52;;;;;;;9.38;5.30;;;;;;;11.28;42.79;101583.75;3616392;39;20059;-71
2021/04/19 07:41:20;;;;;;;8.55;5.38;;;;;;;11.29;42.50;101584.63;3616941;39;20398;-71
2021/04/19 07:43:48;;;;;;;9.65;6.20;;;;;;;11.29;42.34;101574.53;3620253;39;20135;-70
2021/04/19 07:46:18;;;;;;;9.70;5.65;;;;;;;11.29;42.89;101581.88;3609848;39;20425;-71
2021/04/19 07:48:48;;;;;;;10.10;6.80;;;;;;;11.29;42.65;101584.63;3616218;39;20056;-71
2021/04/19 07:51:29;;;;;;;7.63;5.53;;;;;;;11.27;43.53;101587.50;3620160;39;20088;-71
2021/04/19 07:54:19;;;;;;;10.15;5.72;;;;;;;11.25;43.42;101589.47;3611826;39;20063;-71
2021/04/19 07:57:05;;;;;;;8.35;5.20;;;;;;;11.22;42.68;101583.34;3616570;39;20377;-71
2021/04/19 07:59:34;;;;;;;8.32;5.40;;;;;;;11.21;42.58;101585.22;3609397;39;20057;-71
2021/04/19 08:02:04;;;;;;;7.25;5.00;;;;;;;11.20;42.52;101588.94;3617840;39;20136;-71
2021/04/19 08:04:35;;;;;;;7.80;4.97;;;;;;;11.18;42.63;101585.47;3607759;39;20047;-71
2021/04/19 08:07:02;;;;;;;8.00;5.60;;;;;;;11.15;42.74;101593.91;3615124;39;20058;-71
2021/04/19 08:09:32;;;;;;;7.25;4.75;;;;;;;11.17;42.82;101597.41;3619691;39;20034;-71
2021/04/19 08:12:07;;;;;;;7.68;5.10;;;;;;;11.17;43.33;101602.03;3616856;39;20061;-71
2021/04/19 08:14:34;;;;;;;7.68;5.18;;;;;;;11.14;42.83;101605.84;3615239;39;20171;-72
2021/04/19 08:17:06;;;;;;;9.57;5.63;;;;;;;11.17;43.63;101607.50;3618840;39;20031;-71
2021/04/19 08:19:35;;;;;;;8.32;5.57;;;;;;;11.15;42.98;101606.72;3616261;39;20062;-71
2021/04/19 08:22:17;;;;;;;7.80;5.68;;;;;;;11.16;43.67;101611.22;3608784;39;20054;-71
2021/04/19 08:24:45;;;;;;;7.60;5.15;;;;;;;11.13;42.48;101606.84;3619192;39;20057;-71
2021/04/19 08:27:20;;;;;;;9.48;5.70;;;;;;;11.17;43.93;101605.63;3609348;39;20302;-71
2021/04/19 08:29:48;;;;;;;8.38;5.53;;;;;;;11.15;43.11;101609.47;3618598;39;20043;-71
2021/04/19 08:32:17;;;;;;;8.02;5.55;;;;;;;11.16;42.98;101603.88;3617513;39;20051;-71
2021/04/19 08:34:49;;;;;;;8.80;6.00;;;;;;;11.17;42.99;101602.91;3618936;39;20047;-70
2021/04/19 08:37:18;;;;;;;8.35;5.50;;;;;;;11.19;43.37;101600.03;3615897;39;20356;-71
2021/04/19 08:39:46;;;;;;;9.60;6.63;;;;;;;11.19;42.94;101608.25;3607816;39;20051;-71
2021/04/19 08:42:20;;;;;;;9.13;5.97;;;;;;;11.18;42.63;101609.25;3615858;39;20335;-72
2021/04/19 08:44:50;;;;;;;9.43;6.70;;;;;;;11.20;42.92;101605.38;3604592;39;20059;-70
2021/04/19 08:47:19;;;;;;;9.43;6.47;;;;;;;11.19;43.14;101606.41;3617844;39;20051;-67
2021/04/19 08:49:48;;;;;;;9.07;6.10;;;;;;;11.21;43.36;101609.88;3603425;39;20051;-68
2021/04/19 08:52:15;;;;;;;10.15;6.88;;;;;;;11.22;43.26;101605.25;3611374;39;20043;-67
2021/04/19 08:54:44;;;;;;;10.05;6.78;;;;;;;11.23;43.36;101598.78;3614539;39;20087;-67
2021/04/19 08:57:12;;;;;;;10.20;6.95;;;;;;;11.23;43.02;101598.78;3618485;39;20071;-67
2021/04/19 08:59:41;;;;;;;9.65;7.03;;;;;;;11.26;43.45;101604.03;3616602;39;20406;-68
2021/04/19 09:02:08;;;;;;;8.57;6.45;;;;;;;11.25;43.38;101603.16;3618026;39;20446;-67
2021/04/19 09:04:36;;;;;;;11.15;7.45;;;;;;;11.27;43.38;101608.53;3617279;39;20047;-67
2021/04/19 09:07:04;;;;;;;10.48;7.57;;;;;;;11.31;43.48;101609.16;3618595;39;20047;-67
2021/04/19 09:09:38;;;;;;;10.93;8.05;;;;;;;11.33;44.14;101609.91;3619151;39;20102;-67
2021/04/19 09:12:27;;;;;;;9.73;7.65;;;;;;;11.34;44.27;101615.28;3616041;39;20287;-67
2021/04/19 09:15:29;;;;;;;8.98;6.72;;;;;;;11.33;44.02;101621.75;3617819;39;20326;-67
2021/04/19 09:18:06;;;;;;;9.52;7.10;;;;;;;11.40;44.23;101617.53;3595305;39;20395;-67
2021/04/19 09:20:47;;;;;;;10.88;7.63;;;;;;;11.43;44.18;101617.31;3618116;39;20124;-67
2021/04/19 09:23:24;;;;;;;11.50;8.30;;;;;;;11.46;44.23;101613.44;3608557;39;20408;-67
2021/04/19 09:25:52;;;;;;;11.73;7.82;;;;;;;11.46;43.46;101617.06;3609104;39;20047;-67
2021/04/19 09:28:50;;;;;;;11.52;8.18;;;;;;;11.46;44.22;101622.53;3613970;39;20046;-67
2021/04/19 09:31:17;;;;;;;9.48;6.53;;;;;;;11.50;43.53;101610.34;3586592;40;20056;-67
2021/04/19 09:33:46;;;;;;;11.93;8.27;;;;;;;11.57;43.60;101618.97;3611608;39;20102;-67
2021/04/19 09:36:14;;;;;;;11.95;9.25;;;;;;;11.58;43.66;101618.84;3618112;39;20335;-67
2021/04/19 09:38:53;;;;;;;11.38;9.00;;;;;;;11.62;43.68;101613.97;3615835;39;20059;-68
2021/04/19 09:41:22;;;;;;;12.00;9.05;;;;;;;11.63;43.58;101623.94;3618380;39;20046;-67
2021/04/19 09:43:54;;;;;;;14.80;10.52;;;;;;;11.66;43.61;101626.47;3616810;39;20047;-67
2021/04/19 09:46:30;;;;;;;10.27;7.72;;;;;;;11.71;44.17;101628.81;3610693;39;20054;-67
2021/04/19 09:49:03;;;;;;;12.65;8.75;;;;;;;11.70;44.04;101627.06;3618525;39;20059;-67
2021/04/19 09:51:33;;;;;;;12.30;8.90;;;;;;;11.72;43.61;101628.69;3609902;39;20036;-67
2021/04/19 09:54:08;;;;;;;12.93;9.43;;;;;;;11.75;43.75;101627.59;3617670;39;20058;-67
2021/04/19 09:56:41;;;;;;;14.43;10.82;;;;;;;11.78;43.92;101633.69;3618798;39;20078;-67
2021/04/19 09:59:10;;;;;;;14.82;10.32;;;;;;;11.77;43.34;101631.09;3599559;39;20043;-67
2021/04/19 10:01:38;;;;;;;13.65;10.10;;;;;;;11.79;43.62;101624.47;3609482;39;20043;-68
2021/04/19 10:04:05;;;;;;;13.05;9.85;;;;;;;11.81;43.56;101625.25;3612559;39;20050;-68
2021/04/19 10:06:38;;;;;;;13.48;9.98;;;;;;;11.85;43.89;101617.66;3604335;39;20047;-68
2021/04/19 10:09:10;;;;;;;;;;;;;;;11.57;44.24;101613.47;3617392;39;20390;-67
2021/04/19 10:11:42;;;;;;;11.60;7.72;;;;;;;11.82;43.77;101618.75;3618718;39;20024;-67
2021/04/19 10:14:13;;;;;;;12.43;9.80;;;;;;;11.88;43.50;101617.38;3625049;22;20313;-68
2021/04/19 10:16:45;;;;;;;13.95;10.48;;;;;;;11.89;43.32;101614.53;3612550;39;20065;-66
2021/04/19 10:19:22;;;;;;;12.17;9.43;;;;;;;11.90;43.50;101615.41;3618961;39;20354;-67
2021/04/19 10:21:57;;;;;;;11.80;8.65;;;;;;;11.94;44.21;101604.09;3609492;39;20273;-68
2021/04/19 10:24:25;;;;;;;15.32;10.85;;;;;;;11.95;43.43;101610.44;3603856;39;20426;-67
2021/04/19 10:26:52;;;;;;;13.35;10.18;;;;;;;11.96;43.37;101610.34;3608000;39;20329;-67
2021/04/19 10:29:22;;;;;;;12.13;9.45;;;;;;;12.00;43.67;101608.22;3595684;39;20055;-67
2021/04/19 10:31:51;;;;;;;11.60;9.52;;;;;;;12.03;43.56;101608.84;3598601;39;20043;-68
2021/04/19 10:34:20;;;;;;;14.10;10.80;;;;;;;12.06;43.75;101604.13;3608433;39;20057;-68
2021/04/19 10:36:50;;;;;;;11.55;9.05;;;;;;;12.09;43.83;101596.53;3608178;39;20271;-67
2021/04/19 10:39:20;;;;;;;13.05;10.40;;;;;;;12.14;43.91;101599.75;3608173;39;20088;-68
2021/04/19 10:41:53;;;;;;;13.15;9.60;;;;;;;12.20;44.35;101593.75;3608940;39;20078;-68
2021/04/19 10:44:33;;;;;;;12.63;9.35;;;;;;;12.25;44.35;101597.00;3598576;39;20283;-67
2021/04/19 10:47:00;;;;;;;12.75;9.43;;;;;;;12.30;43.82;101594.75;3606519;39;20043;-68
2021/04/19 10:49:29;;;;;;;13.02;10.27;;;;;;;12.38;44.48;101592.25;3604624;39;20282;-70
2021/04/19 10:51:58;;;;;;;11.85;10.02;;;;;;;12.47;44.46;101589.75;3597689;39;20043;-67
2021/04/19 10:54:27;;;;;;;14.63;9.88;;;;;;;12.55;44.56;101589.97;3607638;39;20051;-68
2021/04/19 10:56:57;;;;;;;9.68;7.80;;;;;;;12.65;44.30;101590.97;3605519;39;20079;-68
2021/04/19 10:59:25;;;;;;;11.35;8.75;;;;;;;12.73;43.97;101589.31;3596172;39;20047;-68
2021/04/19 11:02:02;;;;;;;12.32;9.32;;;;;;;12.86;44.09;101585.53;3605710;39;20050;-68
2021/04/19 11:04:31;;;;;;;10.05;8.32;;;;;;;12.93;43.50;101584.91;3606646;39;20063;-68
2021/04/19 11:07:25;;;;;;;11.77;9.10;;;;;;;13.04;43.25;101589.50;3607193;39;20140;-69
2021/04/19 11:10:15;;;;;;;12.50;9.30;;;;;;;13.10;43.03;101576.09;3603925;39;20052;-68
2021/04/19 11:12:54;;;;;;;11.25;8.55;;;;;;;13.22;42.89;101578.81;3597288;39;20063;-68
2021/04/19 11:15:28;;;;;;;11.60;8.30;;;;;;;13.28;42.73;101578.28;3604635;39;20052;-68
2021/04/19 11:17:55;;;;;;;9.93;8.05;;;;;;;13.31;42.18;101576.16;3599069;39;20047;-68
2021/04/19 11:20:24;;;;;;;9.23;7.82;;;;;;;13.37;42.54;101578.34;3595605;39;20036;-68
2021/04/19 11:22:52;;;;;;;12.02;8.90;;;;;;;13.39;42.18;101569.97;3595877;39;20424;-68
2021/04/19 11:25:22;;;;;;;11.30;8.40;;;;;;;13.45;42.50;101575.81;3601455;39;20058;-68
2021/04/19 11:27:51;;;;;;;10.88;8.20;;;;;;;13.49;42.30;101580.06;3602627;39;20335;-69
2021/04/19 11:30:25;;;;;;;10.38;7.80;;;;;;;13.56;42.18;101577.63;3599521;39;20059;-68
2021/04/19 11:33:05;;;;;;;11.05;7.68;;;;;;;13.61;41.67;101568.97;3607973;39;20090;-68
2021/04/19 11:35:38;;;;;;;10.88;7.85;;;;;;;13.65;41.50;101570.47;3604954;39;20047;-68
2021/04/19 11:38:06;;;;;;;;;;;;;;;13.38;42.30;101565.50;3598444;39;20060;-67
2021/04/19 11:40:39;;;;;;;7.82;5.72;;;;;;;13.67;41.76;101574.78;3606627;39;20266;-68
2021/04/19 11:43:17;;;;;;;10.68;8.10;;;;;;;13.75;41.09;101561.22;3605785;39;20032;-67
2021/04/19 11:45:46;;;;;;;9.65;7.38;;;;;;;13.79;41.35;101570.09;3607033;39;20052;-68